sensor_id;sensor_type;location;lat;lon;timestamp;P1;durP1;ratioP1;P2;durP2;ratioP2
6378;SDS011;3222;48.858;10.128;2023-02-28T00:01:31;3.17;;;2.87;;
6378;SDS011;3222;48.858;10.128;2023-02-28T00:03:59;3.00;;;2.80;;
6378;SDS011;3222;48.858;10.128;2023-02-28T00:06:24;4.70;;;3.40;;
6378;SDS011;3222;48.858;10.128;2023-02-28T00:08:50;4.53;;;3.20;;
6378;SDS011;3222;48.858;10.128;2023-02-28T00:11:16;3.50;;;3.20;;
6378;SDS011;3222;48.858;10.128;2023-02-28T00:13:43;3.83;;;3.30;;
6378;SDS011;3222;48.858;10.128;2023-02-28T00:16:12;3.87;;;3.50;;
6378;SDS011;3222;48.858;10.128;2023-02-28T00:18:40;4.57;;;3.80;;
6378;SDS011;3222;48.858;10.128;2023-02-28T00:21:06;3.90;;;3.47;;
6378;SDS011;3222;48.858;10.128;2023-02-28T00:23:33;6.03;;;3.50;;
6378;SDS011;3222;48.858;10.128;2023-02-28T00:25:58;3.57;;;3.10;;
6378;SDS011;3222;48.858;10.128;2023-02-28T00:28:24;5.37;;;3.33;;
6378;SDS011;3222;48.858;10.128;2023-02-28T00:30:50;4.80;;;3.57;;
6378;SDS011;3222;48.858;10.128;2023-02-28T00:33:15;3.83;;;3.30;;
6378;SDS011;3222;48.858;10.128;2023-02-28T00:35:41;4.70;;;3.37;;
6378;SDS011;3222;48.858;10.128;2023-02-28T00:38:11;5.47;;;3.43;;
6378;SDS011;3222;48.858;10.128;2023-02-28T00:40:37;3.70;;;3.40;;
6378;SDS011;3222;48.858;10.128;2023-02-28T00:43:03;3.87;;;3.37;;
6378;SDS011;3222;48.858;10.128;2023-02-28T00:45:29;4.37;;;3.90;;
6378;SDS011;3222;48.858;10.128;2023-02-28T00:47:56;5.30;;;3.60;;
6378;SDS011;3222;48.858;10.128;2023-02-28T00:50:21;5.13;;;3.90;;
6378;SDS011;3222;48.858;10.128;2023-02-28T00:52:47;7.80;;;3.90;;
6378;SDS011;3222;48.858;10.128;2023-02-28T00:55:13;3.87;;;3.50;;
6378;SDS011;3222;48.858;10.128;2023-02-28T00:57:39;5.10;;;3.57;;
6378;SDS011;3222;48.858;10.128;2023-02-28T01:00:05;4.50;;;3.90;;
6378;SDS011;3222;48.858;10.128;2023-02-28T01:02:32;4.23;;;3.67;;
6378;SDS011;3222;48.858;10.128;2023-02-28T01:04:58;3.73;;;3.43;;
6378;SDS011;3222;48.858;10.128;2023-02-28T01:07:24;4.03;;;3.63;;
6378;SDS011;3222;48.858;10.128;2023-02-28T01:09:50;5.30;;;3.60;;
6378;SDS011;3222;48.858;10.128;2023-02-28T01:12:16;4.77;;;3.73;;
6378;SDS011;3222;48.858;10.128;2023-02-28T01:14:42;4.27;;;3.80;;
6378;SDS011;3222;48.858;10.128;2023-02-28T01:17:08;4.23;;;3.83;;
6378;SDS011;3222;48.858;10.128;2023-02-28T01:19:33;5.07;;;3.80;;
6378;SDS011;3222;48.858;10.128;2023-02-28T01:22:02;5.20;;;3.67;;
6378;SDS011;3222;48.858;10.128;2023-02-28T01:24:29;3.93;;;3.40;;
6378;SDS011;3222;48.858;10.128;2023-02-28T01:26:54;3.57;;;3.27;;
6378;SDS011;3222;48.858;10.128;2023-02-28T01:29:20;4.47;;;3.57;;
6378;SDS011;3222;48.858;10.128;2023-02-28T01:31:46;3.60;;;3.30;;
6378;SDS011;3222;48.858;10.128;2023-02-28T01:34:12;4.73;;;3.70;;
6378;SDS011;3222;48.858;10.128;2023-02-28T01:36:37;4.43;;;3.90;;
6378;SDS011;3222;48.858;10.128;2023-02-28T01:39:03;5.20;;;3.53;;
6378;SDS011;3222;48.858;10.128;2023-02-28T01:41:30;4.47;;;4.03;;
6378;SDS011;3222;48.858;10.128;2023-02-28T01:44:01;4.13;;;3.67;;
6378;SDS011;3222;48.858;10.128;2023-02-28T01:46:33;4.10;;;3.47;;
6378;SDS011;3222;48.858;10.128;2023-02-28T01:51:32;4.47;;;3.90;;
6378;SDS011;3222;48.858;10.128;2023-02-28T01:54:04;6.60;;;4.17;;
6378;SDS011;3222;48.858;10.128;2023-02-28T01:56:39;4.13;;;3.73;;
6378;SDS011;3222;48.858;10.128;2023-02-28T01:59:14;4.03;;;3.63;;
6378;SDS011;3222;48.858;10.128;2023-02-28T02:01:47;7.43;;;3.60;;
6378;SDS011;3222;48.858;10.128;2023-02-28T02:04:13;4.83;;;3.43;;
6378;SDS011;3222;48.858;10.128;2023-02-28T02:06:42;3.87;;;3.50;;
6378;SDS011;3222;48.858;10.128;2023-02-28T02:09:10;5.13;;;3.60;;
6378;SDS011;3222;48.858;10.128;2023-02-28T02:11:36;3.60;;;3.30;;
6378;SDS011;3222;48.858;10.128;2023-02-28T02:19:38;4.70;;;4.03;;
6378;SDS011;3222;48.858;10.128;2023-02-28T02:25:18;4.50;;;4.10;;
6378;SDS011;3222;48.858;10.128;2023-02-28T02:39:30;7.77;;;4.57;;
6378;SDS011;3222;48.858;10.128;2023-02-28T02:42:03;7.63;;;3.97;;
6378;SDS011;3222;48.858;10.128;2023-02-28T02:44:49;5.20;;;4.10;;
6378;SDS011;3222;48.858;10.128;2023-02-28T02:47:22;5.90;;;3.90;;
6378;SDS011;3222;48.858;10.128;2023-02-28T02:49:54;5.00;;;3.67;;
6378;SDS011;3222;48.858;10.128;2023-02-28T02:52:23;4.00;;;3.70;;
6378;SDS011;3222;48.858;10.128;2023-02-28T02:54:55;4.27;;;3.87;;
6378;SDS011;3222;48.858;10.128;2023-02-28T02:57:25;5.10;;;3.80;;
6378;SDS011;3222;48.858;10.128;2023-02-28T02:59:57;5.33;;;4.40;;
6378;SDS011;3222;48.858;10.128;2023-02-28T03:02:25;5.33;;;4.10;;
6378;SDS011;3222;48.858;10.128;2023-02-28T03:04:59;4.30;;;3.90;;
6378;SDS011;3222;48.858;10.128;2023-02-28T03:07:28;4.63;;;4.23;;
6378;SDS011;3222;48.858;10.128;2023-02-28T03:09:55;4.70;;;4.27;;
6378;SDS011;3222;48.858;10.128;2023-02-28T03:12:44;4.73;;;4.00;;
6378;SDS011;3222;48.858;10.128;2023-02-28T03:15:26;4.60;;;4.00;;
6378;SDS011;3222;48.858;10.128;2023-02-28T03:18:08;5.87;;;4.50;;
6378;SDS011;3222;48.858;10.128;2023-02-28T03:21:26;5.23;;;4.53;;
6378;SDS011;3222;48.858;10.128;2023-02-28T03:23:45;4.97;;;4.47;;
6378;SDS011;3222;48.858;10.128;2023-02-28T03:26:21;5.20;;;4.33;;
6378;SDS011;3222;48.858;10.128;2023-02-28T03:29:05;4.60;;;4.20;;
6378;SDS011;3222;48.858;10.128;2023-02-28T03:31:39;5.80;;;4.27;;
6378;SDS011;3222;48.858;10.128;2023-02-28T03:34:13;6.07;;;4.40;;
6378;SDS011;3222;48.858;10.128;2023-02-28T03:36:50;5.40;;;4.23;;
6378;SDS011;3222;48.858;10.128;2023-02-28T03:39:33;4.93;;;4.30;;
6378;SDS011;3222;48.858;10.128;2023-02-28T03:42:09;5.17;;;4.43;;
6378;SDS011;3222;48.858;10.128;2023-02-28T03:44:45;7.00;;;4.37;;
6378;SDS011;3222;48.858;10.128;2023-02-28T03:52:37;6.07;;;5.10;;
6378;SDS011;3222;48.858;10.128;2023-02-28T03:55:08;6.37;;;5.00;;
6378;SDS011;3222;48.858;10.128;2023-02-28T03:57:43;6.47;;;4.80;;
6378;SDS011;3222;48.858;10.128;2023-02-28T04:00:35;5.23;;;4.40;;
6378;SDS011;3222;48.858;10.128;2023-02-28T04:03:05;6.73;;;4.80;;
6378;SDS011;3222;48.858;10.128;2023-02-28T04:05:31;5.60;;;4.93;;
6378;SDS011;3222;48.858;10.128;2023-02-28T04:08:04;5.67;;;5.10;;
6378;SDS011;3222;48.858;10.128;2023-02-28T04:10:32;5.63;;;4.93;;
6378;SDS011;3222;48.858;10.128;2023-02-28T04:12:57;8.07;;;5.07;;
6378;SDS011;3222;48.858;10.128;2023-02-28T04:15:23;5.03;;;4.53;;
6378;SDS011;3222;48.858;10.128;2023-02-28T04:17:49;6.77;;;4.70;;
6378;SDS011;3222;48.858;10.128;2023-02-28T04:20:15;6.03;;;4.90;;
6378;SDS011;3222;48.858;10.128;2023-02-28T04:22:41;5.30;;;4.80;;
6378;SDS011;3222;48.858;10.128;2023-02-28T04:25:07;5.17;;;4.67;;
6378;SDS011;3222;48.858;10.128;2023-02-28T04:27:33;6.00;;;4.77;;
6378;SDS011;3222;48.858;10.128;2023-02-28T04:29:59;6.10;;;4.77;;
6378;SDS011;3222;48.858;10.128;2023-02-28T04:32:24;8.03;;;5.40;;
6378;SDS011;3222;48.858;10.128;2023-02-28T04:34:50;5.70;;;5.17;;
6378;SDS011;3222;48.858;10.128;2023-02-28T04:37:16;6.37;;;5.17;;
6378;SDS011;3222;48.858;10.128;2023-02-28T04:39:42;6.03;;;4.80;;
6378;SDS011;3222;48.858;10.128;2023-02-28T04:42:07;5.53;;;5.00;;
6378;SDS011;3222;48.858;10.128;2023-02-28T04:44:33;6.73;;;5.53;;
6378;SDS011;3222;48.858;10.128;2023-02-28T04:46:59;6.00;;;5.00;;
6378;SDS011;3222;48.858;10.128;2023-02-28T04:49:25;6.30;;;5.33;;
6378;SDS011;3222;48.858;10.128;2023-02-28T04:51:50;5.70;;;5.20;;
6378;SDS011;3222;48.858;10.128;2023-02-28T04:54:17;6.00;;;5.40;;
6378;SDS011;3222;48.858;10.128;2023-02-28T04:56:43;8.20;;;5.50;;
6378;SDS011;3222;48.858;10.128;2023-02-28T04:59:09;6.43;;;5.17;;
6378;SDS011;3222;48.858;10.128;2023-02-28T05:01:35;5.80;;;5.30;;
6378;SDS011;3222;48.858;10.128;2023-02-28T05:04:02;6.13;;;5.53;;
6378;SDS011;3222;48.858;10.128;2023-02-28T05:06:30;6.57;;;5.53;;
6378;SDS011;3222;48.858;10.128;2023-02-28T05:08:57;7.17;;;5.73;;
6378;SDS011;3222;48.858;10.128;2023-02-28T05:11:27;6.30;;;5.53;;
6378;SDS011;3222;48.858;10.128;2023-02-28T05:14:10;7.47;;;5.87;;
6378;SDS011;3222;48.858;10.128;2023-02-28T05:16:37;6.20;;;5.60;;
6378;SDS011;3222;48.858;10.128;2023-02-28T05:19:03;9.27;;;6.23;;
6378;SDS011;3222;48.858;10.128;2023-02-28T05:21:30;7.03;;;5.53;;
6378;SDS011;3222;48.858;10.128;2023-02-28T05:23:58;8.07;;;5.80;;
6378;SDS011;3222;48.858;10.128;2023-02-28T05:26:25;6.70;;;6.00;;
6378;SDS011;3222;48.858;10.128;2023-02-28T05:28:52;6.17;;;5.53;;
6378;SDS011;3222;48.858;10.128;2023-02-28T05:31:18;8.50;;;5.97;;
6378;SDS011;3222;48.858;10.128;2023-02-28T05:33:44;7.13;;;6.43;;
6378;SDS011;3222;48.858;10.128;2023-02-28T05:36:10;7.43;;;6.43;;
6378;SDS011;3222;48.858;10.128;2023-02-28T05:38:35;7.20;;;5.60;;
6378;SDS011;3222;48.858;10.128;2023-02-28T05:41:04;7.70;;;6.30;;
6378;SDS011;3222;48.858;10.128;2023-02-28T05:43:31;9.40;;;6.20;;
6378;SDS011;3222;48.858;10.128;2023-02-28T05:45:57;8.40;;;6.23;;
6378;SDS011;3222;48.858;10.128;2023-02-28T05:48:23;7.37;;;5.77;;
6378;SDS011;3222;48.858;10.128;2023-02-28T05:50:49;6.93;;;6.20;;
6378;SDS011;3222;48.858;10.128;2023-02-28T05:53:14;8.57;;;6.20;;
6378;SDS011;3222;48.858;10.128;2023-02-28T05:55:40;7.57;;;6.33;;
6378;SDS011;3222;48.858;10.128;2023-02-28T05:58:06;8.37;;;6.47;;
6378;SDS011;3222;48.858;10.128;2023-02-28T06:00:32;7.43;;;6.33;;
6378;SDS011;3222;48.858;10.128;2023-02-28T06:02:59;6.97;;;6.27;;
6378;SDS011;3222;48.858;10.128;2023-02-28T06:05:26;7.80;;;6.17;;
6378;SDS011;3222;48.858;10.128;2023-02-28T06:07:53;8.67;;;6.77;;
6378;SDS011;3222;48.858;10.128;2023-02-28T06:10:18;8.27;;;6.80;;
6378;SDS011;3222;48.858;10.128;2023-02-28T06:12:44;7.90;;;6.17;;
6378;SDS011;3222;48.858;10.128;2023-02-28T06:15:11;7.83;;;6.87;;
6378;SDS011;3222;48.858;10.128;2023-02-28T06:17:39;11.10;;;6.90;;
6378;SDS011;3222;48.858;10.128;2023-02-28T06:20:05;6.97;;;6.27;;
6378;SDS011;3222;48.858;10.128;2023-02-28T06:22:33;7.47;;;6.70;;
6378;SDS011;3222;48.858;10.128;2023-02-28T06:25:03;10.07;;;6.77;;
6378;SDS011;3222;48.858;10.128;2023-02-28T06:27:30;8.83;;;7.00;;
6378;SDS011;3222;48.858;10.128;2023-02-28T06:29:57;12.03;;;7.80;;
6378;SDS011;3222;48.858;10.128;2023-02-28T06:32:23;9.70;;;7.03;;
6378;SDS011;3222;48.858;10.128;2023-02-28T06:34:49;9.53;;;7.10;;
6378;SDS011;3222;48.858;10.128;2023-02-28T06:37:15;10.37;;;6.80;;
6378;SDS011;3222;48.858;10.128;2023-02-28T06:39:42;9.97;;;7.10;;
6378;SDS011;3222;48.858;10.128;2023-02-28T06:42:08;11.50;;;7.53;;
6378;SDS011;3222;48.858;10.128;2023-02-28T06:44:34;8.33;;;6.93;;
6378;SDS011;3222;48.858;10.128;2023-02-28T06:47:00;8.83;;;7.13;;
6378;SDS011;3222;48.858;10.128;2023-02-28T06:49:33;8.37;;;6.67;;
6378;SDS011;3222;48.858;10.128;2023-02-28T06:52:00;7.37;;;6.50;;
6378;SDS011;3222;48.858;10.128;2023-02-28T06:54:26;8.73;;;7.20;;
6378;SDS011;3222;48.858;10.128;2023-02-28T06:56:52;9.10;;;6.67;;
6378;SDS011;3222;48.858;10.128;2023-02-28T06:59:19;8.23;;;7.00;;
6378;SDS011;3222;48.858;10.128;2023-02-28T07:01:45;9.67;;;6.90;;
6378;SDS011;3222;48.858;10.128;2023-02-28T07:04:10;10.13;;;7.50;;
6378;SDS011;3222;48.858;10.128;2023-02-28T07:06:37;8.33;;;7.47;;
6378;SDS011;3222;48.858;10.128;2023-02-28T07:09:03;9.47;;;6.97;;
6378;SDS011;3222;48.858;10.128;2023-02-28T07:11:29;8.73;;;7.23;;
6378;SDS011;3222;48.858;10.128;2023-02-28T07:13:54;9.07;;;6.93;;
6378;SDS011;3222;48.858;10.128;2023-02-28T07:16:20;8.80;;;7.03;;
6378;SDS011;3222;48.858;10.128;2023-02-28T07:18:47;8.87;;;7.17;;
6378;SDS011;3222;48.858;10.128;2023-02-28T07:21:13;8.83;;;6.90;;
6378;SDS011;3222;48.858;10.128;2023-02-28T07:23:39;7.60;;;6.63;;
6378;SDS011;3222;48.858;10.128;2023-02-28T07:26:06;9.03;;;7.47;;
6378;SDS011;3222;48.858;10.128;2023-02-28T07:28:32;9.43;;;7.33;;
6378;SDS011;3222;48.858;10.128;2023-02-28T07:31:02;9.83;;;7.40;;
6378;SDS011;3222;48.858;10.128;2023-02-28T07:33:31;9.70;;;8.03;;
6378;SDS011;3222;48.858;10.128;2023-02-28T07:36:17;8.77;;;7.20;;
6378;SDS011;3222;48.858;10.128;2023-02-28T07:38:44;8.90;;;6.97;;
6378;SDS011;3222;48.858;10.128;2023-02-28T07:41:16;8.53;;;7.20;;
6378;SDS011;3222;48.858;10.128;2023-02-28T07:43:43;9.03;;;7.37;;
6378;SDS011;3222;48.858;10.128;2023-02-28T07:46:10;9.83;;;7.40;;
6378;SDS011;3222;48.858;10.128;2023-02-28T07:48:40;10.13;;;8.13;;
6378;SDS011;3222;48.858;10.128;2023-02-28T07:51:06;11.27;;;7.93;;
6378;SDS011;3222;48.858;10.128;2023-02-28T07:53:32;9.33;;;7.43;;
6378;SDS011;3222;48.858;10.128;2023-02-28T07:55:59;9.53;;;7.47;;
6378;SDS011;3222;48.858;10.128;2023-02-28T07:58:25;9.67;;;7.70;;
6378;SDS011;3222;48.858;10.128;2023-02-28T08:00:52;9.60;;;8.17;;
6378;SDS011;3222;48.858;10.128;2023-02-28T08:03:18;11.40;;;7.57;;
6378;SDS011;3222;48.858;10.128;2023-02-28T08:05:45;11.83;;;8.23;;
6378;SDS011;3222;48.858;10.128;2023-02-28T08:08:11;10.33;;;8.00;;
6378;SDS011;3222;48.858;10.128;2023-02-28T08:10:37;8.90;;;7.93;;
6378;SDS011;3222;48.858;10.128;2023-02-28T08:13:03;11.00;;;7.23;;
6378;SDS011;3222;48.858;10.128;2023-02-28T08:15:29;11.23;;;8.50;;
6378;SDS011;3222;48.858;10.128;2023-02-28T08:17:54;13.57;;;8.17;;
6378;SDS011;3222;48.858;10.128;2023-02-28T08:20:23;10.70;;;8.43;;
6378;SDS011;3222;48.858;10.128;2023-02-28T08:22:50;10.70;;;7.77;;
6378;SDS011;3222;48.858;10.128;2023-02-28T08:25:16;9.30;;;7.80;;
6378;SDS011;3222;48.858;10.128;2023-02-28T08:27:42;8.47;;;7.27;;
6378;SDS011;3222;48.858;10.128;2023-02-28T08:30:09;8.67;;;7.20;;
6378;SDS011;3222;48.858;10.128;2023-02-28T08:32:36;9.83;;;7.47;;
6378;SDS011;3222;48.858;10.128;2023-02-28T08:35:02;11.07;;;7.87;;
6378;SDS011;3222;48.858;10.128;2023-02-28T08:37:28;11.00;;;8.63;;
6378;SDS011;3222;48.858;10.128;2023-02-28T08:39:54;9.87;;;8.07;;
6378;SDS011;3222;48.858;10.128;2023-02-28T08:42:20;10.70;;;7.80;;
6378;SDS011;3222;48.858;10.128;2023-02-28T08:44:46;10.10;;;7.93;;
6378;SDS011;3222;48.858;10.128;2023-02-28T08:47:11;10.13;;;8.00;;
6378;SDS011;3222;48.858;10.128;2023-02-28T08:49:37;9.17;;;7.80;;
6378;SDS011;3222;48.858;10.128;2023-02-28T08:52:03;10.53;;;7.77;;
6378;SDS011;3222;48.858;10.128;2023-02-28T08:54:29;12.17;;;8.40;;
6378;SDS011;3222;48.858;10.128;2023-02-28T08:56:56;10.47;;;8.00;;
6378;SDS011;3222;48.858;10.128;2023-02-28T08:59:22;9.57;;;8.00;;
6378;SDS011;3222;48.858;10.128;2023-02-28T09:01:48;10.47;;;8.30;;
6378;SDS011;3222;48.858;10.128;2023-02-28T09:04:13;11.40;;;8.23;;
6378;SDS011;3222;48.858;10.128;2023-02-28T09:06:39;11.27;;;8.97;;
6378;SDS011;3222;48.858;10.128;2023-02-28T09:09:05;11.50;;;8.33;;
6378;SDS011;3222;48.858;10.128;2023-02-28T09:11:32;12.40;;;8.43;;
6378;SDS011;3222;48.858;10.128;2023-02-28T09:14:00;10.20;;;8.67;;
6378;SDS011;3222;48.858;10.128;2023-02-28T09:16:28;12.67;;;8.87;;
6378;SDS011;3222;48.858;10.128;2023-02-28T09:18:54;10.50;;;7.80;;
6378;SDS011;3222;48.858;10.128;2023-02-28T09:21:20;10.00;;;7.87;;
6378;SDS011;3222;48.858;10.128;2023-02-28T09:23:46;13.63;;;7.93;;
6378;SDS011;3222;48.858;10.128;2023-02-28T09:26:14;14.20;;;8.37;;
6378;SDS011;3222;48.858;10.128;2023-02-28T09:28:44;9.97;;;7.67;;
6378;SDS011;3222;48.858;10.128;2023-02-28T09:31:12;12.77;;;8.60;;
6378;SDS011;3222;48.858;10.128;2023-02-28T09:33:39;10.80;;;7.93;;
6378;SDS011;3222;48.858;10.128;2023-02-28T09:36:06;9.20;;;7.30;;
6378;SDS011;3222;48.858;10.128;2023-02-28T09:38:32;9.60;;;8.43;;
6378;SDS011;3222;48.858;10.128;2023-02-28T09:40:59;10.40;;;8.13;;
6378;SDS011;3222;48.858;10.128;2023-02-28T09:43:35;10.13;;;7.87;;
6378;SDS011;3222;48.858;10.128;2023-02-28T09:46:18;11.20;;;8.37;;
6378;SDS011;3222;48.858;10.128;2023-02-28T09:48:57;10.17;;;8.10;;
6378;SDS011;3222;48.858;10.128;2023-02-28T09:51:43;10.53;;;8.00;;
6378;SDS011;3222;48.858;10.128;2023-02-28T09:54:18;10.87;;;8.30;;
6378;SDS011;3222;48.858;10.128;2023-02-28T09:56:53;10.73;;;8.03;;
6378;SDS011;3222;48.858;10.128;2023-02-28T10:05:21;11.50;;;8.20;;
6378;SDS011;3222;48.858;10.128;2023-02-28T10:10:39;9.87;;;8.30;;
6378;SDS011;3222;48.858;10.128;2023-02-28T10:16:13;10.13;;;8.47;;
6378;SDS011;3222;48.858;10.128;2023-02-28T10:18:56;10.07;;;8.33;;
6378;SDS011;3222;48.858;10.128;2023-02-28T10:21:45;9.67;;;7.97;;
6378;SDS011;3222;48.858;10.128;2023-02-28T10:24:26;10.40;;;8.20;;
6378;SDS011;3222;48.858;10.128;2023-02-28T10:27:01;12.43;;;8.17;;
6378;SDS011;3222;48.858;10.128;2023-02-28T10:29:54;10.93;;;8.07;;
6378;SDS011;3222;48.858;10.128;2023-02-28T10:32:32;11.73;;;8.27;;
6378;SDS011;3222;48.858;10.128;2023-02-28T10:37:31;11.90;;;8.50;;
6378;SDS011;3222;48.858;10.128;2023-02-28T10:39:57;9.43;;;7.33;;
6378;SDS011;3222;48.858;10.128;2023-02-28T10:45:35;13.50;;;7.83;;
6378;SDS011;3222;48.858;10.128;2023-02-28T10:47:49;9.83;;;7.33;;
6378;SDS011;3222;48.858;10.128;2023-02-28T10:50:26;14.77;;;8.63;;
6378;SDS011;3222;48.858;10.128;2023-02-28T11:04:16;9.90;;;8.03;;
6378;SDS011;3222;48.858;10.128;2023-02-28T11:06:46;8.90;;;7.73;;
6378;SDS011;3222;48.858;10.128;2023-02-28T11:11:56;8.43;;;7.53;;
6378;SDS011;3222;48.858;10.128;2023-02-28T11:14:23;13.17;;;8.00;;
6378;SDS011;3222;48.858;10.128;2023-02-28T11:16:51;9.90;;;7.90;;
6378;SDS011;3222;48.858;10.128;2023-02-28T11:19:19;8.97;;;7.73;;
6378;SDS011;3222;48.858;10.128;2023-02-28T11:21:53;11.97;;;8.27;;
6378;SDS011;3222;48.858;10.128;2023-02-28T11:24:29;9.80;;;7.90;;
6378;SDS011;3222;48.858;10.128;2023-02-28T11:27:06;11.20;;;7.63;;
6378;SDS011;3222;48.858;10.128;2023-02-28T11:29:39;8.80;;;7.47;;
6378;SDS011;3222;48.858;10.128;2023-02-28T11:32:19;10.00;;;7.67;;
6378;SDS011;3222;48.858;10.128;2023-02-28T11:37:25;9.10;;;7.40;;
6378;SDS011;3222;48.858;10.128;2023-02-28T11:39:53;9.27;;;7.50;;
6378;SDS011;3222;48.858;10.128;2023-02-28T11:44:57;9.90;;;8.13;;
6378;SDS011;3222;48.858;10.128;2023-02-28T11:47:48;8.40;;;7.50;;
6378;SDS011;3222;48.858;10.128;2023-02-28T11:56:14;9.13;;;7.40;;
6378;SDS011;3222;48.858;10.128;2023-02-28T12:01:38;10.07;;;7.20;;
6378;SDS011;3222;48.858;10.128;2023-02-28T12:12:35;9.33;;;7.47;;
6378;SDS011;3222;48.858;10.128;2023-02-28T12:15:27;9.80;;;7.53;;
6378;SDS011;3222;48.858;10.128;2023-02-28T12:23:55;8.87;;;7.83;;
6378;SDS011;3222;48.858;10.128;2023-02-28T12:26:44;12.47;;;7.63;;
6378;SDS011;3222;48.858;10.128;2023-02-28T12:32:17;10.47;;;7.60;;
6378;SDS011;3222;48.858;10.128;2023-02-28T12:38:17;10.57;;;8.00;;
6378;SDS011;3222;48.858;10.128;2023-02-28T12:40:51;8.03;;;7.23;;
6378;SDS011;3222;48.858;10.128;2023-02-28T12:43:44;9.00;;;7.43;;
6378;SDS011;3222;48.858;10.128;2023-02-28T12:46:15;12.27;;;8.00;;
6378;SDS011;3222;48.858;10.128;2023-02-28T12:48:55;9.40;;;7.83;;
6378;SDS011;3222;48.858;10.128;2023-02-28T12:51:22;10.17;;;7.77;;
6378;SDS011;3222;48.858;10.128;2023-02-28T12:59:05;9.93;;;7.93;;
6378;SDS011;3222;48.858;10.128;2023-02-28T13:01:48;9.73;;;7.47;;
6378;SDS011;3222;48.858;10.128;2023-02-28T13:07:33;8.80;;;7.70;;
6378;SDS011;3222;48.858;10.128;2023-02-28T13:10:20;10.93;;;8.83;;
6378;SDS011;3222;48.858;10.128;2023-02-28T13:12:52;9.60;;;8.07;;
6378;SDS011;3222;48.858;10.128;2023-02-28T13:15:24;10.00;;;7.80;;
6378;SDS011;3222;48.858;10.128;2023-02-28T13:17:54;9.30;;;8.00;;
6378;SDS011;3222;48.858;10.128;2023-02-28T13:20:24;9.57;;;8.03;;
6378;SDS011;3222;48.858;10.128;2023-02-28T13:22:56;9.30;;;8.27;;
6378;SDS011;3222;48.858;10.128;2023-02-28T13:27:48;10.77;;;8.63;;
6378;SDS011;3222;48.858;10.128;2023-02-28T13:38:44;9.50;;;8.40;;
6378;SDS011;3222;48.858;10.128;2023-02-28T13:46:26;9.70;;;8.53;;
6378;SDS011;3222;48.858;10.128;2023-02-28T13:48:52;9.37;;;7.83;;
6378;SDS011;3222;48.858;10.128;2023-02-28T13:51:28;8.63;;;7.73;;
6378;SDS011;3222;48.858;10.128;2023-02-28T13:54:34;9.77;;;8.60;;
6378;SDS011;3222;48.858;10.128;2023-02-28T14:02:47;9.87;;;8.03;;
6378;SDS011;3222;48.858;10.128;2023-02-28T14:05:28;10.17;;;7.90;;
6378;SDS011;3222;48.858;10.128;2023-02-28T14:07:57;9.63;;;8.07;;
6378;SDS011;3222;48.858;10.128;2023-02-28T14:10:30;9.07;;;7.40;;
6378;SDS011;3222;48.858;10.128;2023-02-28T14:13:02;8.87;;;7.77;;
6378;SDS011;3222;48.858;10.128;2023-02-28T14:15:40;8.90;;;8.00;;
6378;SDS011;3222;48.858;10.128;2023-02-28T14:18:16;9.27;;;7.30;;
6378;SDS011;3222;48.858;10.128;2023-02-28T14:21:10;8.93;;;8.03;;
6378;SDS011;3222;48.858;10.128;2023-02-28T14:31:58;11.17;;;8.33;;
6378;SDS011;3222;48.858;10.128;2023-02-28T14:37:15;9.97;;;7.67;;
6378;SDS011;3222;48.858;10.128;2023-02-28T14:39:44;11.07;;;8.60;;
6378;SDS011;3222;48.858;10.128;2023-02-28T14:44:58;9.83;;;8.63;;
6378;SDS011;3222;48.858;10.128;2023-02-28T14:47:27;10.50;;;8.03;;
6378;SDS011;3222;48.858;10.128;2023-02-28T14:49:56;9.73;;;8.00;;
6378;SDS011;3222;48.858;10.128;2023-02-28T14:52:26;10.87;;;8.53;;
6378;SDS011;3222;48.858;10.128;2023-02-28T14:55:03;10.80;;;8.17;;
6378;SDS011;3222;48.858;10.128;2023-02-28T14:57:33;8.97;;;8.00;;
6378;SDS011;3222;48.858;10.128;2023-02-28T15:00:46;10.47;;;7.80;;
6378;SDS011;3222;48.858;10.128;2023-02-28T15:02:55;9.73;;;7.37;;
6378;SDS011;3222;48.858;10.128;2023-02-28T15:05:23;11.97;;;8.67;;
6378;SDS011;3222;48.858;10.128;2023-02-28T15:10:40;10.40;;;8.03;;
6378;SDS011;3222;48.858;10.128;2023-02-28T15:13:16;12.77;;;8.33;;
6378;SDS011;3222;48.858;10.128;2023-02-28T15:21:14;12.50;;;7.57;;
6378;SDS011;3222;48.858;10.128;2023-02-28T15:23:45;9.97;;;8.10;;
6378;SDS011;3222;48.858;10.128;2023-02-28T15:26:15;9.30;;;8.30;;
6378;SDS011;3222;48.858;10.128;2023-02-28T15:28:44;10.80;;;9.13;;
6378;SDS011;3222;48.858;10.128;2023-02-28T15:31:21;9.57;;;8.57;;
6378;SDS011;3222;48.858;10.128;2023-02-28T15:33:54;9.10;;;8.17;;
6378;SDS011;3222;48.858;10.128;2023-02-28T15:36:23;10.07;;;8.63;;
6378;SDS011;3222;48.858;10.128;2023-02-28T15:38:52;13.67;;;8.30;;
6378;SDS011;3222;48.858;10.128;2023-02-28T15:41:25;10.63;;;8.47;;
6378;SDS011;3222;48.858;10.128;2023-02-28T15:46:58;10.00;;;8.00;;
6378;SDS011;3222;48.858;10.128;2023-02-28T15:49:32;9.83;;;8.20;;
6378;SDS011;3222;48.858;10.128;2023-02-28T15:52:15;8.97;;;8.07;;
6378;SDS011;3222;48.858;10.128;2023-02-28T15:54:44;10.40;;;8.70;;
6378;SDS011;3222;48.858;10.128;2023-02-28T15:57:17;9.27;;;8.00;;
6378;SDS011;3222;48.858;10.128;2023-02-28T15:59:51;8.67;;;7.70;;
6378;SDS011;3222;48.858;10.128;2023-02-28T16:02:21;9.60;;;8.00;;
6378;SDS011;3222;48.858;10.128;2023-02-28T16:05:18;10.13;;;8.27;;
6378;SDS011;3222;48.858;10.128;2023-02-28T16:07:56;9.60;;;8.40;;
6378;SDS011;3222;48.858;10.128;2023-02-28T16:10:24;8.90;;;7.60;;
6378;SDS011;3222;48.858;10.128;2023-02-28T16:12:53;9.47;;;8.07;;
6378;SDS011;3222;48.858;10.128;2023-02-28T16:15:22;9.10;;;8.13;;
6378;SDS011;3222;48.858;10.128;2023-02-28T16:17:51;9.70;;;8.47;;
6378;SDS011;3222;48.858;10.128;2023-02-28T16:20:19;8.93;;;8.03;;
6378;SDS011;3222;48.858;10.128;2023-02-28T16:22:47;9.20;;;8.20;;
6378;SDS011;3222;48.858;10.128;2023-02-28T16:25:16;10.23;;;7.43;;
6378;SDS011;3222;48.858;10.128;2023-02-28T16:27:44;9.53;;;8.00;;
6378;SDS011;3222;48.858;10.128;2023-02-28T16:30:17;12.57;;;8.50;;
6378;SDS011;3222;48.858;10.128;2023-02-28T16:32:46;11.00;;;8.37;;
6378;SDS011;3222;48.858;10.128;2023-02-28T16:35:11;13.17;;;8.57;;
6378;SDS011;3222;48.858;10.128;2023-02-28T16:37:39;10.37;;;8.53;;
6378;SDS011;3222;48.858;10.128;2023-02-28T16:40:05;10.60;;;8.60;;
6378;SDS011;3222;48.858;10.128;2023-02-28T16:42:31;10.90;;;8.30;;
6378;SDS011;3222;48.858;10.128;2023-02-28T16:44:57;11.43;;;9.47;;
6378;SDS011;3222;48.858;10.128;2023-02-28T16:47:23;15.00;;;12.20;;
6378;SDS011;3222;48.858;10.128;2023-02-28T16:49:49;10.43;;;9.17;;
6378;SDS011;3222;48.858;10.128;2023-02-28T16:52:14;11.27;;;8.57;;
6378;SDS011;3222;48.858;10.128;2023-02-28T16:54:41;12.73;;;8.93;;
6378;SDS011;3222;48.858;10.128;2023-02-28T16:57:14;14.33;;;9.73;;
6378;SDS011;3222;48.858;10.128;2023-02-28T16:59:46;14.33;;;10.23;;
6378;SDS011;3222;48.858;10.128;2023-02-28T17:02:13;11.50;;;8.23;;
6378;SDS011;3222;48.858;10.128;2023-02-28T17:04:40;10.47;;;8.27;;
6378;SDS011;3222;48.858;10.128;2023-02-28T17:07:08;11.87;;;8.97;;
6378;SDS011;3222;48.858;10.128;2023-02-28T17:09:37;12.47;;;8.73;;
6378;SDS011;3222;48.858;10.128;2023-02-28T17:12:03;9.70;;;8.30;;
6378;SDS011;3222;48.858;10.128;2023-02-28T17:14:29;16.50;;;11.17;;
6378;SDS011;3222;48.858;10.128;2023-02-28T17:16:54;12.77;;;9.87;;
6378;SDS011;3222;48.858;10.128;2023-02-28T17:19:20;11.70;;;9.70;;
6378;SDS011;3222;48.858;10.128;2023-02-28T17:21:46;12.13;;;9.80;;
6378;SDS011;3222;48.858;10.128;2023-02-28T17:24:11;11.93;;;9.50;;
6378;SDS011;3222;48.858;10.128;2023-02-28T17:26:38;10.47;;;9.37;;
6378;SDS011;3222;48.858;10.128;2023-02-28T17:29:16;12.50;;;9.23;;
6378;SDS011;3222;48.858;10.128;2023-02-28T17:31:45;13.87;;;9.13;;
6378;SDS011;3222;48.858;10.128;2023-02-28T17:34:12;11.10;;;9.43;;
6378;SDS011;3222;48.858;10.128;2023-02-28T17:36:46;9.87;;;8.63;;
6378;SDS011;3222;48.858;10.128;2023-02-28T17:39:15;12.37;;;8.80;;
6378;SDS011;3222;48.858;10.128;2023-02-28T17:41:48;10.97;;;8.77;;
6378;SDS011;3222;48.858;10.128;2023-02-28T17:44:18;10.63;;;8.90;;